< < Back
Terminal Aerodrome Forecast


Current Version              Previous Versions:   1  2  3  4  5  6  7  8  9  

Terminal Aerodrome Forecast

678
FTUS42 KCAE 291400 AAA
TAFAGS
TAF AMD
KAGS 291436Z 2915/3012 16004KT P6SM BKN250
     FM291600 20010KT P6SM BKN250
     FM300300 24006KT P6SM SCT035 BKN100=

Latest METAR

013
SAUS70 KWBC 291600 RRA
MTRAGS
METAR KAGS 291553Z 15007KT 10SM CLR 09/M02 A3035 RMK AO2 SLP277
T00941022


USA.gov is the U.S. government's official web portal to all federal, state and local government web resources and services.